This is the latest recevied weather packets stored in our database for station/object K9ZOG. If no packets are shown the sender has not sent any weather packets the latest 10 day(s).
| Time | Temp. | Humidity | Pressure | Rain* | Wind** | Luminosity | Snow |
|---|---|---|---|---|---|---|---|
| 1778016853 | 11.11° C | 42% | 1008.9 hPa | 0 mm | - | 166 W/m² | - |
| 1778016554 | 11.11° C | 42% | 1009 hPa | 0 mm | - | 166 W/m² | - |
| 1778016252 | 11.11° C | 42% | 1008.9 hPa | 0 mm | - | 191 W/m² | - |
| 1778015954 | 11.11° C | 43% | 1008.9 hPa | 0 mm | - | 189 W/m² | - |
| 1778015654 | 11.11° C | 43% | 1008.9 hPa | 0 mm | - | 189 W/m² | - |
| 1778015357 | 11.11° C | 42% | 1008.9 hPa | 0 mm | - | 193 W/m² | - |
| 1778015053 | 11.11° C | 41% | 1008.9 hPa | 0 mm | - | 186 W/m² | - |
| 1778014755 | 11.11° C | 41% | 1009 hPa | 0 mm | - | 208 W/m² | - |
| 1778014455 | 11.67° C | 41% | 1009 hPa | 0 mm | - | 228 W/m² | - |
| 1778014153 | 11.67° C | 42% | 1009.1 hPa | 0 mm | - | 238 W/m² | - |
| 1778013855 | 11.67° C | 42% | 1009 hPa | 0 mm | - | 257 W/m² | - |
| 1778013555 | 11.67° C | 42% | 1009 hPa | 0 mm | - | 253 W/m² | - |
| 1778013257 | 11.67° C | 40% | 1009 hPa | 0 mm | - | 267 W/m² | - |
| 1778012953 | 11.67° C | 42% | 1009.1 hPa | 0 mm | - | 303 W/m² | - |
| 1778012653 | 12.22° C | 40% | 1009.2 hPa | 0 mm | - | 388 W/m² | - |
| 1778012353 | 12.22° C | 42% | 1009.3 hPa | 0 mm | - | 502 W/m² | - |
| 1778012053 | 11.67° C | 44% | 1009.4 hPa | 0 mm | - | 571 W/m² | - |
| 1778011753 | 11.67° C | 44% | 1009.3 hPa | 0 mm | - | 565 W/m² | - |
| 1778011455 | 11.67° C | 41% | 1009.3 hPa | 0 mm | - | 339 W/m² | - |
| 1778011156 | 11.67° C | 41% | 1009.4 hPa | 0 mm | - | 353 W/m² | - |
| 1778010856 | 11.67° C | 42% | 1009.4 hPa | 0 mm | - | 344 W/m² | - |
| 1778010553 | 11.67° C | 43% | 1009.4 hPa | 0 mm | - | 360 W/m² | - |
| 1778010252 | 11.67° C | 42% | 1009.3 hPa | 0 mm | - | 365 W/m² | - |
| 1778009953 | 11.67° C | 43% | 1009.3 hPa | 0 mm | - | 399 W/m² | - |
| 1778009652 | 11.67° C | 41% | 1009.3 hPa | 0 mm | - | 347 W/m² | - |
* Rain latest hour (hover to see other rain measurements)
** Current wind speed in m/s (hover to see current wind gust speed)